Time;durP1;ratioP1;P1;durP2;ratioP2;P2;SDS_P1;SDS_P2;PMS_P1;PMS_P2;Temp;Humidity;BMP_temperature;BMP_pressure;BME280_temperature;BME280_humidity;BME280_pressure;Samples;Min_cycle;Max_cycle;Signal;HPM_P1;HPM_P2
2021/07/09 00:01:56;;;;;;;7.53;4.35;;;21.80;99.90;;;;;;4919728;29;20180;-89
2021/07/09 00:04:23;;;;;;;6.53;4.57;;;21.80;99.90;;;;;;4902961;29;20572;-90
2021/07/09 00:06:49;;;;;;;6.25;4.65;;;21.70;99.90;;;;;;4902844;29;20556;-90
2021/07/09 00:09:15;;;;;;;9.77;5.70;;;21.70;99.90;;;;;;4902263;29;20197;-90
2021/07/09 00:11:43;;;;;;;8.00;4.53;;;21.70;99.90;;;;;;4919778;29;20173;-90
2021/07/09 00:14:11;;;;;;;7.70;4.80;;;21.70;99.90;;;;;;4902721;29;20185;-89
2021/07/09 00:16:37;;;;;;;9.82;4.95;;;21.70;99.90;;;;;;4902560;29;20184;-90
2021/07/09 00:19:05;;;;;;;6.82;5.00;;;21.70;99.90;;;;;;4919121;29;20224;-89
2021/07/09 00:21:32;;;;;;;8.40;5.20;;;21.70;99.90;;;;;;4885947;29;20430;-89
2021/07/09 00:23:59;;;;;;;8.95;4.75;;;21.60;99.90;;;;;;4919204;29;20244;-91
2021/07/09 00:26:25;;;;;;;8.55;4.97;;;21.60;99.90;;;;;;4919225;29;20188;-91
2021/07/09 00:28:51;;;;;;;12.65;5.88;;;21.60;99.90;;;;;;4902482;29;20622;-90
2021/07/09 00:31:17;;;;;;;5.95;5.00;;;21.50;99.90;;;;;;4919285;29;20196;-90
2021/07/09 00:33:42;;;;;;;6.32;5.20;;;21.50;99.90;;;;;;4919287;29;20247;-89
2021/07/09 00:36:08;;;;;;;8.68;5.10;;;21.50;99.90;;;;;;4902179;29;20230;-90
2021/07/09 00:38:34;;;;;;;10.25;5.25;;;21.50;99.90;;;;;;4918877;29;20205;-90
2021/07/09 00:40:59;;;;;;;6.90;5.07;;;21.40;99.90;;;;;;4886080;29;20212;-89
2021/07/09 00:43:25;;;;;;;7.95;5.25;;;21.40;99.90;;;;;;4919006;29;20185;-90
2021/07/09 00:45:51;;;;;;;8.32;5.53;;;21.40;99.90;;;;;;4886420;29;20646;-90
2021/07/09 00:48:17;;;;;;;8.27;5.32;;;21.40;99.90;;;;;;4885781;29;20247;-90
2021/07/09 00:50:43;;;;;;;8.32;5.47;;;21.40;99.90;;;;;;4918897;29;20189;-90
2021/07/09 00:53:08;;;;;;;10.10;5.68;;;21.30;99.90;;;;;;4901607;29;20183;-90
2021/07/09 00:55:35;;;;;;;7.20;4.90;;;21.20;99.90;;;;;;4901941;29;20246;-91
2021/07/09 00:58:02;;;;;;;7.53;5.60;;;21.20;99.90;;;;;;4918598;29;20181;-88
2021/07/09 01:00:29;;;;;;;11.10;5.60;;;21.10;99.90;;;;;;4918774;29;20200;-88
2021/07/09 01:02:55;;;;;;;10.13;5.38;;;21.10;99.90;;;;;;4886274;29;20188;-90
2021/07/09 01:05:22;;;;;;;7.70;5.40;;;21.00;99.90;;;;;;4901757;29;20191;-90
2021/07/09 01:07:47;;;;;;;7.72;5.93;;;21.00;99.90;;;;;;4918674;29;20200;-90
2021/07/09 01:10:18;;;;;;;7.80;5.47;;;20.90;99.90;;;;;;4901529;29;20239;-89
2021/07/09 01:12:45;;;;;;;7.55;5.78;;;20.90;99.90;;;;;;4901580;29;20223;-89
2021/07/09 01:15:13;;;;;;;6.53;5.70;;;20.80;99.90;;;;;;4901191;29;20185;-90
2021/07/09 01:17:40;;;;;;;10.23;5.28;;;20.80;99.90;;;;;;4918515;29;20173;-90
2021/07/09 01:20:12;;;;;;;10.05;6.18;;;20.80;99.90;;;;;;4917985;29;20299;-89
2021/07/09 01:22:42;;;;;;;10.43;6.18;;;20.80;99.90;;;;;;4918248;29;20267;-90
2021/07/09 01:25:11;;;;;;;11.40;5.68;;;20.80;99.90;;;;;;4901139;29;20176;-89
2021/07/09 01:27:38;;;;;;;8.80;5.93;;;20.70;99.90;;;;;;4901341;29;20622;-90
2021/07/09 01:30:09;;;;;;;12.00;6.55;;;20.80;99.90;;;;;;4885487;29;20184;-89
2021/07/09 01:32:35;;;;;;;9.65;6.57;;;20.70;99.90;;;;;;4900137;29;20190;-90
2021/07/09 01:35:02;;;;;;;11.55;6.60;;;20.70;99.90;;;;;;4918253;29;20180;-89
2021/07/09 01:37:27;;;;;;;7.97;6.75;;;20.70;99.90;;;;;;4900766;29;20180;-90
2021/07/09 01:39:53;;;;;;;11.68;6.70;;;20.70;99.90;;;;;;4901182;29;20260;-89
2021/07/09 01:42:19;;;;;;;9.05;6.22;;;20.70;99.90;;;;;;4900605;29;20185;-90
2021/07/09 01:44:45;;;;;;;12.85;6.60;;;20.70;99.90;;;;;;4901425;29;20197;-90
2021/07/09 01:47:11;;;;;;;16.67;7.35;;;20.70;99.90;;;;;;4900776;29;20196;-90
2021/07/09 01:50:09;;;;;;;8.80;6.32;;;20.70;99.90;;;;;;4885706;29;20189;-90
2021/07/09 01:52:35;;;;;;;8.95;6.65;;;20.60;99.90;;;;;;4860131;29;20227;-89
2021/07/09 01:55:02;;;;;;;11.82;6.53;;;20.60;99.90;;;;;;4885439;29;20659;-88
2021/07/09 01:57:29;;;;;;;15.48;6.85;;;20.60;99.90;;;;;;4917452;29;20195;-89
2021/07/09 01:59:58;;;;;;;10.30;6.60;;;20.70;99.90;;;;;;4917731;29;20212;-88
2021/07/09 02:02:25;;;;;;;9.30;6.90;;;20.60;99.90;;;;;;4900482;29;20193;-88
2021/07/09 02:04:54;;;;;;;10.48;6.70;;;20.70;99.90;;;;;;4917652;29;20638;-88
2021/07/09 02:07:21;;;;;;;11.10;6.75;;;20.60;99.90;;;;;;4917040;29;20172;-89
2021/07/09 02:09:51;;;;;;;12.13;6.63;;;20.70;99.90;;;;;;4900598;29;20216;-90
2021/07/09 02:12:20;;;;;;;13.68;6.95;;;20.60;99.90;;;;;;4917194;29;20652;-88
2021/07/09 02:14:47;;;;;;;12.55;7.07;;;20.60;99.90;;;;;;4917217;29;20181;-89
2021/07/09 02:17:15;;;;;;;9.10;7.15;;;20.50;99.90;;;;;;4900452;29;20192;-89
2021/07/09 02:19:43;;;;;;;14.48;7.78;;;20.50;99.90;;;;;;4884807;29;20217;-88
2021/07/09 02:22:11;;;;;;;10.75;7.40;;;20.40;99.90;;;;;;4917370;29;20244;-89
2021/07/09 02:24:45;;;;;;;21.90;8.10;;;20.40;99.90;;;;;;4917335;29;20243;-89
2021/07/09 02:27:11;;;;;;;10.32;7.22;;;20.40;99.90;;;;;;4900564;29;20259;-88
2021/07/09 02:29:37;;;;;;;15.35;7.57;;;20.30;99.90;;;;;;4884484;29;20256;-88
2021/07/09 02:32:06;;;;;;;9.75;7.50;;;20.40;99.90;;;;;;4916911;29;20263;-87
2021/07/09 02:34:32;;;;;;;15.20;8.52;;;20.30;99.90;;;;;;4899854;29;20173;-88
2021/07/09 02:36:58;;;;;;;12.63;7.85;;;20.30;99.90;;;;;;4900737;29;20192;-88
2021/07/09 02:39:25;;;;;;;16.30;8.60;;;20.30;99.90;;;;;;4916472;29;20208;-87
2021/07/09 02:41:55;;;;;;;14.75;8.43;;;20.30;99.90;;;;;;4900580;29;20236;-88
2021/07/09 02:44:21;;;;;;;10.30;7.80;;;20.30;99.90;;;;;;4915959;29;20646;-87
2021/07/09 02:46:47;;;;;;;11.90;7.50;;;20.30;99.90;;;;;;4916966;29;20177;-87
2021/07/09 02:49:13;;;;;;;14.70;8.65;;;20.30;99.90;;;;;;4917204;29;20816;-88
2021/07/09 02:51:39;;;;;;;16.15;8.43;;;20.30;99.90;;;;;;4916423;29;20191;-87
2021/07/09 02:54:06;;;;;;;14.18;8.70;;;20.30;99.90;;;;;;4900002;29;20267;-87
2021/07/09 02:56:31;;;;;;;16.40;8.38;;;20.30;99.90;;;;;;4916622;29;20180;-87
2021/07/09 02:58:58;;;;;;;13.45;8.80;;;20.40;99.90;;;;;;4916942;29;20177;-88
2021/07/09 03:01:27;;;;;;;18.00;8.38;;;20.50;99.90;;;;;;4899420;29;20583;-87
2021/07/09 03:03:55;;;;;;;17.17;8.90;;;20.50;99.90;;;;;;4916943;29;20193;-87
2021/07/09 03:06:22;;;;;;;10.18;8.38;;;20.50;99.90;;;;;;4899771;29;20177;-85
2021/07/09 03:08:49;;;;;;;18.65;8.88;;;20.50;99.90;;;;;;4900021;29;20188;-87
2021/07/09 03:11:15;;;;;;;12.52;8.88;;;20.60;99.90;;;;;;4899649;29;20192;-87
2021/07/09 03:13:41;;;;;;;17.48;8.93;;;20.60;99.90;;;;;;4916422;29;20180;-87
2021/07/09 03:16:07;;;;;;;19.63;8.85;;;20.60;99.90;;;;;;4884179;29;20204;-87
2021/07/09 03:18:32;;;;;;;13.52;8.57;;;20.70;99.90;;;;;;4868386;29;20272;-87
2021/07/09 03:20:58;;;;;;;13.57;9.07;;;20.70;99.90;;;;;;4899977;29;20246;-86
2021/07/09 03:23:24;;;;;;;16.48;9.20;;;20.80;99.90;;;;;;4883862;29;20192;-87
2021/07/09 03:25:50;;;;;;;17.35;9.38;;;20.80;99.90;;;;;;4899578;29;20241;-88
2021/07/09 03:28:15;;;;;;;13.18;9.35;;;20.80;99.90;;;;;;4916655;29;20212;-87
2021/07/09 03:30:42;;;;;;;11.82;9.45;;;20.80;99.90;;;;;;4883818;29;20545;-87
2021/07/09 03:33:09;;;;;;;16.75;8.85;;;20.90;99.90;;;;;;4899609;29;20181;-87
2021/07/09 03:35:34;;;;;;;13.43;9.45;;;20.90;99.90;;;;;;4899264;29;20176;-87
2021/07/09 03:38:00;;;;;;;15.80;9.65;;;21.00;99.90;;;;;;4884166;29;20674;-88
2021/07/09 03:40:26;;;;;;;16.25;9.70;;;21.00;99.90;;;;;;4915993;29;20204;-87
2021/07/09 03:42:51;;;;;;;12.52;8.23;;;21.00;99.90;;;;;;4900073;29;20276;-87
2021/07/09 03:45:19;;;;;;;13.55;10.05;;;21.10;99.90;;;;;;4899316;29;20180;-87
2021/07/09 03:47:45;;;;;;;13.65;9.93;;;21.10;99.90;;;;;;4898964;29;21101;-87
2021/07/09 03:50:12;;;;;;;15.70;9.32;;;21.10;99.90;;;;;;4899596;29;20519;-88
2021/07/09 03:52:37;;;;;;;14.57;9.18;;;21.10;99.90;;;;;;4899554;29;20247;-87
2021/07/09 03:55:05;;;;;;;15.68;9.15;;;21.20;99.90;;;;;;4884676;29;20181;-87
2021/07/09 03:57:30;;;;;;;21.55;9.60;;;21.20;99.90;;;;;;4887406;29;20334;-86
2021/07/09 03:59:56;;;;;;;17.20;9.45;;;21.20;99.90;;;;;;4902852;29;20685;-87
2021/07/09 04:02:21;;;;;;;13.50;9.48;;;21.30;99.90;;;;;;4887326;29;20232;-88
2021/07/09 04:04:47;;;;;;;17.88;10.10;;;21.30;99.90;;;;;;4902571;29;20566;-87
2021/07/09 04:07:13;;;;;;;20.45;9.45;;;21.30;99.90;;;;;;4919718;29;20219;-87
2021/07/09 04:09:38;;;;;;;16.77;10.02;;;21.30;99.90;;;;;;4919456;29;20191;-87
2021/07/09 04:12:04;;;;;;;18.83;10.32;;;21.40;99.90;;;;;;4919372;29;20196;-87
2021/07/09 04:14:30;;;;;;;13.40;9.45;;;21.50;99.90;;;;;;4918805;29;20181;-86
2021/07/09 04:16:55;;;;;;;11.48;8.38;;;21.50;99.90;;;;;;4902645;29;20177;-88
2021/07/09 04:19:21;;;;;;;21.48;10.18;;;21.50;99.90;;;;;;4902298;29;20184;-87
2021/07/09 04:21:47;;;;;;;13.80;9.80;;;21.60;99.90;;;;;;4886497;29;20556;-87
2021/07/09 04:24:12;;;;;;;22.38;9.82;;;21.60;99.90;;;;;;4902425;29;20184;-87
2021/07/09 04:26:38;;;;;;;13.35;9.38;;;21.80;99.90;;;;;;4886617;29;20185;-87
2021/07/09 04:29:04;;;;;;;22.35;9.25;;;21.80;99.90;;;;;;4887060;29;20267;-87
2021/07/09 04:31:30;;;;;;;27.77;10.82;;;22.00;99.90;;;;;;4918946;29;20542;-87
2021/07/09 04:33:55;;;;;;;17.33;9.23;;;22.00;99.90;;;;;;4902008;29;20667;-87
2021/07/09 04:36:21;;;;;;;17.00;9.95;;;22.10;99.90;;;;;;4919158;29;20591;-88
2021/07/09 04:38:46;;;;;;;15.27;10.15;;;22.20;99.90;;;;;;4901656;29;20327;-87
2021/07/09 04:41:13;;;;;;;14.00;9.35;;;22.20;99.90;;;;;;4919033;29;20215;-87
2021/07/09 04:43:39;;;;;;;14.77;9.50;;;22.30;99.90;;;;;;4901707;29;20271;-88
2021/07/09 04:46:08;;;;;;;11.50;9.60;;;22.30;99.90;;;;;;4919217;29;20271;-88
2021/07/09 04:48:34;;;;;;;11.20;8.57;;;22.40;99.90;;;;;;4919023;29;20236;-87
2021/07/09 04:51:01;;;;;;;18.02;9.98;;;22.50;99.90;;;;;;4918789;29;20181;-87
2021/07/09 04:53:28;;;;;;;19.42;10.05;;;22.60;99.90;;;;;;4886402;29;20689;-88
2021/07/09 04:55:53;;;;;;;12.00;9.18;;;22.70;99.90;;;;;;4885934;29;20653;-87
2021/07/09 04:58:19;;;;;;;16.92;10.60;;;22.70;99.90;;;;;;4903203;29;20185;-88
2021/07/09 05:00:45;;;;;;;12.65;9.43;;;22.80;99.90;;;;;;4901186;29;20213;-87
2021/07/09 05:03:10;;;;;;;19.10;8.90;;;22.90;99.90;;;;;;4918788;29;20185;-87
2021/07/09 05:05:36;;;;;;;19.05;9.85;;;22.90;99.90;;;;;;4918148;29;20196;-87
2021/07/09 05:08:02;;;;;;;16.73;8.93;;;23.00;99.90;;;;;;4918591;29;20657;-88
2021/07/09 05:10:28;;;;;;;14.90;10.13;;;23.10;99.90;;;;;;4886506;29;20196;-88
2021/07/09 05:12:54;;;;;;;13.70;9.07;;;23.10;99.90;;;;;;4918177;29;20591;-88
2021/07/09 05:15:19;;;;;;;15.20;9.35;;;23.20;99.90;;;;;;4901333;29;20185;-87
2021/07/09 05:17:45;;;;;;;16.85;9.35;;;23.20;99.90;;;;;;4885528;29;20669;-87
2021/07/09 05:20:11;;;;;;;12.52;8.85;;;23.30;99.90;;;;;;4901038;29;20264;-88
2021/07/09 05:22:37;;;;;;;15.70;9.23;;;23.40;99.90;;;;;;4901476;29;20189;-88
2021/07/09 05:25:03;;;;;;;15.77;9.85;;;23.50;99.90;;;;;;4901294;29;20540;-88
2021/07/09 05:27:31;;;;;;;16.88;8.90;;;23.50;99.90;;;;;;4918219;29;20193;-89
2021/07/09 05:29:57;;;;;;;9.90;8.32;;;23.60;99.90;;;;;;4901222;29;20203;-88
2021/07/09 05:32:27;;;;;;;18.25;9.80;;;23.70;99.90;;;;;;4900932;29;20682;-88
2021/07/09 05:34:55;;;;;;;15.65;9.02;;;23.70;99.90;;;;;;4917695;29;20197;-86
2021/07/09 05:37:21;;;;;;;14.30;9.60;;;23.80;99.90;;;;;;4918003;29;20271;-87
2021/07/09 05:39:47;;;;;;;16.60;9.43;;;23.90;99.90;;;;;;4916998;29;20204;-87
2021/07/09 05:42:13;;;;;;;12.75;9.43;;;24.00;99.90;;;;;;4900769;29;20200;-87
2021/07/09 05:44:42;;;;;;;15.88;9.57;;;24.10;99.90;;;;;;4917787;29;20666;-90
2021/07/09 05:47:07;;;;;;;22.70;10.20;;;24.20;99.90;;;;;;4917719;29;20267;-90
2021/07/09 05:49:34;;;;;;;12.18;9.07;;;24.20;99.90;;;;;;4916926;29;20903;-89
2021/07/09 05:51:59;;;;;;;12.68;9.88;;;24.30;99.90;;;;;;4900418;29;20275;-88
2021/07/09 05:54:25;;;;;;;13.77;9.35;;;24.40;99.90;;;;;;4884701;29;20308;-89
2021/07/09 05:56:51;;;;;;;12.85;8.77;;;24.50;99.90;;;;;;4884491;29;20540;-89
2021/07/09 05:59:16;;;;;;;14.13;8.90;;;24.50;99.90;;;;;;4900294;29;20630;-88
2021/07/09 06:01:42;;;;;;;17.33;9.57;;;24.60;99.90;;;;;;4899893;29;20287;-86
2021/07/09 06:04:08;;;;;;;13.35;9.95;;;24.70;99.90;;;;;;4916649;29;20284;-88
2021/07/09 06:06:33;;;;;;;16.70;9.32;;;24.80;99.90;;;;;;4900086;29;20328;-88
2021/07/09 06:08:59;;;;;;;14.80;9.63;;;24.90;99.90;;;;;;4884174;29;20196;-88
2021/07/09 06:11:26;;;;;;;17.42;8.70;;;25.00;99.90;;;;;;4884080;29;20195;-87
2021/07/09 06:13:53;;;;;;;19.73;8.68;;;25.10;99.90;;;;;;4916434;29;20173;-88
2021/07/09 06:16:19;;;;;;;11.85;9.10;;;25.20;99.90;;;;;;4916454;29;20240;-87
2021/07/09 06:18:45;;;;;;;10.48;9.23;;;25.30;99.90;;;;;;4915906;29;20177;-86
2021/07/09 06:21:10;;;;;;;14.68;10.15;;;25.30;99.90;;;;;;4899329;29;20213;-86
2021/07/09 06:23:36;;;;;;;15.13;10.15;;;25.40;99.90;;;;;;4898998;29;20185;-86
2021/07/09 06:26:02;;;;;;;13.93;8.45;;;25.50;99.90;;;;;;4883938;29;20267;-87
2021/07/09 06:28:27;;;;;;;12.32;9.32;;;25.60;99.90;;;;;;4918167;29;20186;-87
2021/07/09 06:30:53;;;;;;;13.07;9.38;;;25.70;99.90;;;;;;4899107;29;20205;-88
2021/07/09 06:33:19;;;;;;;11.30;8.38;;;25.70;99.90;;;;;;4899641;29;20199;-88
2021/07/09 06:35:45;;;;;;;15.88;9.40;;;25.80;99.90;;;;;;4902349;29;20195;-88
2021/07/09 06:38:11;;;;;;;11.35;8.43;;;25.90;99.90;;;;;;4915750;29;20194;-87
2021/07/09 06:40:37;;;;;;;17.73;10.05;;;25.30;99.90;;;;;;4884028;29;20220;-87
2021/07/09 06:43:04;;;;;;;12.15;8.65;;;26.10;99.90;;;;;;4915875;29;20197;-88
2021/07/09 06:45:30;;;;;;;20.35;8.55;;;26.20;99.90;;;;;;4899348;29;20184;-87
2021/07/09 06:47:55;;;;;;;11.95;9.05;;;26.30;99.90;;;;;;4898910;29;20295;-89
2021/07/09 06:50:21;;;;;;;14.57;9.73;;;26.30;99.90;;;;;;4891631;29;20195;-90
2021/07/09 06:52:47;;;;;;;14.20;8.57;;;26.40;99.90;;;;;;4883815;29;20207;-87
2021/07/09 06:55:14;;;;;;;21.75;9.98;;;26.50;99.90;;;;;;4916068;29;21295;-89
2021/07/09 06:57:45;;;;;;;12.25;8.93;;;26.60;99.90;;;;;;4868375;29;20684;-89
2021/07/09 07:00:12;;;;;;;15.55;8.38;;;26.60;99.90;;;;;;4899798;29;20283;-88
2021/07/09 07:02:38;;;;;;;11.50;9.15;;;26.70;99.90;;;;;;4898828;29;20280;-89
2021/07/09 07:05:04;;;;;;;18.85;10.00;;;26.20;99.90;;;;;;4898762;29;20260;-89
2021/07/09 07:07:30;;;;;;;12.35;8.50;;;26.90;99.90;;;;;;4899703;29;20184;-89
2021/07/09 07:09:56;;;;;;;11.70;8.68;;;27.00;99.90;;;;;;4914645;29;20190;-87
2021/07/09 07:12:22;;;;;;;13.57;8.60;;;27.10;99.90;;;;;;4898052;29;20302;-91
2021/07/09 07:14:49;;;;;;;15.18;8.48;;;27.10;99.90;;;;;;4882291;29;20188;-89
2021/07/09 07:17:16;;;;;;;11.48;8.77;;;27.20;99.90;;;;;;4882041;29;20188;-89
2021/07/09 07:19:41;;;;;;;14.40;9.07;;;27.30;99.90;;;;;;4914655;29;20193;-88
2021/07/09 07:22:07;;;;;;;17.70;8.80;;;27.40;99.90;;;;;;4881969;29;20256;-90
2021/07/09 07:24:33;;;;;;;15.73;8.27;;;27.50;99.90;;;;;;4882836;29;20678;-91
2021/07/09 07:27:01;;;;;;;14.25;7.55;;;27.60;99.90;;;;;;4881957;29;20248;-88
2021/07/09 07:29:27;;;;;;;11.65;8.05;;;27.70;99.90;;;;;;4915972;29;20187;-90
2021/07/09 07:31:54;;;;;;;12.52;7.88;;;28.00;99.90;;;;;;4901399;29;20279;-87
2021/07/09 07:34:19;;;;;;;11.45;7.85;;;27.80;99.90;;;;;;4901398;29;20434;-89
2021/07/09 07:36:45;;;;;;;8.77;7.82;;;27.80;99.90;;;;;;4901243;29;20623;-88
2021/07/09 07:39:11;;;;;;;9.80;8.02;;;28.10;99.90;;;;;;4901203;29;20702;-89
2021/07/09 07:41:38;;;;;;;12.30;8.30;;;28.00;99.90;;;;;;4902898;29;20188;-90
2021/07/09 07:44:04;;;;;;;11.88;7.78;;;28.00;99.90;;;;;;4919869;29;20227;-88
2021/07/09 07:46:30;;;;;;;17.45;8.23;;;28.10;99.90;;;;;;4887819;29;20185;-90
2021/07/09 07:48:57;;;;;;;16.90;8.18;;;28.10;99.90;;;;;;4902852;29;20375;-89
2021/07/09 07:51:24;;;;;;;12.50;8.02;;;28.10;99.90;;;;;;4919400;29;20271;-90
2021/07/09 07:53:50;;;;;;;9.55;8.20;;;28.20;99.90;;;;;;4919972;29;20185;-89
2021/07/09 07:56:17;;;;;;;14.80;8.02;;;28.30;99.90;;;;;;4918639;29;20232;-89
2021/07/09 07:58:43;;;;;;;13.43;8.05;;;28.30;99.90;;;;;;4872119;29;20188;-87
2021/07/09 08:01:09;;;;;;;15.45;8.48;;;28.30;99.90;;;;;;4919356;29;20209;-88
2021/07/09 08:03:35;;;;;;;11.85;8.15;;;28.40;99.90;;;;;;4871874;29;20192;-87
2021/07/09 08:06:02;;;;;;;12.27;8.27;;;28.50;99.90;;;;;;4918670;29;20212;-88
2021/07/09 08:08:28;;;;;;;11.90;8.10;;;28.60;99.90;;;;;;4915564;29;20181;-87
2021/07/09 08:10:54;;;;;;;8.85;7.43;;;28.60;99.90;;;;;;4884471;29;20185;-88
2021/07/09 08:13:19;;;;;;;10.05;7.47;;;28.70;99.90;;;;;;4918755;29;20307;-88
2021/07/09 08:15:45;;;;;;;9.45;7.50;;;28.60;99.90;;;;;;4902254;29;20638;-88
2021/07/09 08:18:11;;;;;;;14.20;8.13;;;28.70;99.90;;;;;;4899673;29;20645;-87
2021/07/09 08:20:38;;;;;;;9.18;7.43;;;28.70;99.90;;;;;;4902045;29;20549;-88
2021/07/09 08:23:03;;;;;;;12.15;7.03;;;28.90;99.90;;;;;;4896842;29;20603;-87
2021/07/09 08:25:29;;;;;;;17.27;7.13;;;28.90;99.90;;;;;;4900561;29;20247;-87
2021/07/09 08:27:55;;;;;;;12.45;7.65;;;29.00;99.90;;;;;;4902101;29;20191;-88
2021/07/09 08:30:20;;;;;;;10.65;7.60;;;29.20;99.90;;;;;;4901921;29;20196;-88
2021/07/09 08:32:46;;;;;;;8.95;6.97;;;29.30;99.90;;;;;;4901678;29;20275;-86
2021/07/09 08:35:12;;;;;;;9.35;7.05;;;29.30;99.90;;;;;;4917619;29;20546;-88
2021/07/09 08:37:38;;;;;;;11.13;6.90;;;29.30;99.90;;;;;;4884883;29;20189;-88
2021/07/09 08:40:06;;;;;;;11.10;7.50;;;29.30;99.90;;;;;;4869025;29;20213;-87
2021/07/09 08:42:32;;;;;;;8.57;7.07;;;29.30;99.90;;;;;;4916547;29;20583;-89
2021/07/09 08:44:59;;;;;;;12.02;7.00;;;29.50;99.90;;;;;;4900492;29;20191;-88
2021/07/09 08:47:28;;;;;;;14.00;7.25;;;29.50;99.90;;;;;;4900205;29;20755;-87
2021/07/09 08:49:54;;;;;;;8.43;6.60;;;29.40;99.90;;;;;;4918743;29;20268;-91
2021/07/09 08:52:20;;;;;;;13.77;6.63;;;29.50;99.90;;;;;;4900373;29;20673;-88
2021/07/09 08:54:46;;;;;;;10.27;7.22;;;29.60;99.90;;;;;;4916881;29;20173;-88
2021/07/09 08:57:15;;;;;;;11.48;7.53;;;29.70;99.90;;;;;;4900399;29;20196;-88
2021/07/09 08:59:42;;;;;;;11.98;6.70;;;29.70;99.90;;;;;;4869596;29;20724;-87
2021/07/09 09:02:08;;;;;;;9.30;6.88;;;29.80;99.90;;;;;;4900321;29;20196;-89
2021/07/09 09:04:34;;;;;;;9.65;6.95;;;29.90;99.90;;;;;;4901398;29;20531;-86
2021/07/09 09:07:07;;;;;;;13.63;7.53;;;30.00;99.90;;;;;;4925357;29;20275;-89
2021/07/09 09:09:36;;;;;;;9.50;6.72;;;30.00;99.90;;;;;;4897500;29;20232;-89
2021/07/09 09:12:02;;;;;;;14.80;7.35;;;30.00;99.90;;;;;;4908107;29;20256;-88
2021/07/09 09:14:27;;;;;;;15.48;6.95;;;30.20;99.90;;;;;;4920269;29;20176;-88
2021/07/09 09:16:53;;;;;;;10.93;7.13;;;30.30;99.90;;;;;;4901784;29;20547;-89
2021/07/09 09:19:20;;;;;;;11.13;7.55;;;30.30;99.90;;;;;;4884832;29;20276;-88
2021/07/09 09:21:46;;;;;;;14.13;8.82;;;30.40;99.90;;;;;;4917246;29;20215;-87
2021/07/09 09:24:11;;;;;;;14.18;8.05;;;30.40;99.90;;;;;;4899579;29;20276;-88
2021/07/09 09:26:45;;;;;;;17.42;7.75;;;30.40;99.90;;;;;;4899222;29;20199;-87
2021/07/09 09:29:33;;;;;;;9.32;7.90;;;30.60;99.90;;;;;;4916219;29;20157;-88
2021/07/09 09:32:06;;;;;;;13.20;7.80;;;30.50;99.90;;;;;;4916507;29;20221;-86
2021/07/09 09:34:49;;;;;;;10.25;7.05;;;30.60;99.90;;;;;;4894496;29;20627;-87
2021/07/09 09:37:20;;;;;;;15.15;7.57;;;30.70;99.90;;;;;;4915888;29;20169;-87
2021/07/09 09:39:47;;;;;;;12.10;7.30;;;30.80;99.90;;;;;;4899947;29;20225;-89
2021/07/09 09:42:18;;;;;;;10.70;7.30;;;30.80;99.90;;;;;;4884614;29;20195;-87
2021/07/09 09:44:50;;;;;;;11.32;7.25;;;30.90;99.90;;;;;;4917286;29;20165;-87
2021/07/09 09:47:20;;;;;;;9.63;8.55;;;30.90;99.90;;;;;;4916950;29;20331;-87
2021/07/09 09:49:55;;;;;;;15.13;7.50;;;30.90;99.90;;;;;;4917346;29;20216;-88
2021/07/09 09:52:33;;;;;;;10.27;7.10;;;30.90;99.90;;;;;;4916126;29;20184;-86
2021/07/09 09:54:59;;;;;;;8.40;7.50;;;31.00;99.90;;;;;;4900096;29;20188;-87
2021/07/09 09:57:25;;;;;;;11.65;8.02;;;31.00;99.90;;;;;;4900035;29;20184;-88
2021/07/09 09:59:51;;;;;;;11.32;7.18;;;31.10;99.90;;;;;;4884613;29;20204;-87
2021/07/09 10:02:20;;;;;;;9.55;7.88;;;31.00;99.90;;;;;;4884686;29;20263;-86
2021/07/09 10:04:46;;;;;;;15.30;8.52;;;31.10;99.90;;;;;;4899706;29;20188;-85
2021/07/09 10:07:13;;;;;;;14.82;7.82;;;31.20;99.90;;;;;;4899777;29;20184;-86
2021/07/09 10:09:39;;;;;;;11.00;8.05;;;31.20;99.90;;;;;;4883977;29;20243;-88
2021/07/09 10:12:08;;;;;;;9.18;8.20;;;31.30;99.90;;;;;;4916223;29;20184;-87
2021/07/09 10:14:36;;;;;;;13.45;7.90;;;31.30;99.90;;;;;;4916212;29;20176;-87
2021/07/09 10:17:04;;;;;;;8.98;7.80;;;31.40;99.90;;;;;;4914168;29;20195;-88
2021/07/09 10:19:42;;;;;;;9.00;7.13;;;31.50;99.90;;;;;;4898882;29;20542;-87
2021/07/09 10:22:08;;;;;;;15.95;7.38;;;31.60;99.90;;;;;;4906823;29;20184;-88
2021/07/09 10:24:35;;;;;;;11.63;7.28;;;31.60;99.90;;;;;;4899068;29;20184;-87
2021/07/09 10:27:02;;;;;;;10.63;7.50;;;31.70;99.90;;;;;;4899401;29;20188;-88
2021/07/09 10:29:33;;;;;;;9.23;7.85;;;31.80;99.90;;;;;;4899403;29;20248;-87
2021/07/09 10:32:00;;;;;;;9.23;7.25;;;32.00;99.90;;;;;;4916329;29;20173;-87
2021/07/09 10:34:28;;;;;;;11.25;7.80;;;32.00;99.90;;;;;;4916141;29;20211;-87
2021/07/09 10:37:01;;;;;;;12.00;7.80;;;32.30;99.90;;;;;;4898994;29;20774;-88
2021/07/09 10:39:39;;;;;;;12.27;7.60;;;32.30;99.90;;;;;;4894702;29;20184;-89
2021/07/09 10:42:27;;;;;;;13.20;8.38;;;32.30;99.90;;;;;;4896243;29;20195;-90
2021/07/09 10:45:12;;;;;;;13.13;8.32;;;32.10;99.90;;;;;;4899316;29;20586;-88
2021/07/09 10:47:41;;;;;;;11.13;7.55;;;32.20;99.90;;;;;;4896965;29;20242;-88
2021/07/09 10:50:09;;;;;;;10.30;7.50;;;32.40;99.90;;;;;;4916258;29;20176;-89
2021/07/09 10:52:57;;;;;;;9.50;7.40;;;32.20;99.90;;;;;;4897046;29;20187;-89
2021/07/09 10:55:28;;;;;;;10.23;7.38;;;32.20;99.90;;;;;;4896788;29;20586;-89
2021/07/09 10:58:06;;;;;;;9.43;7.55;;;32.20;99.90;;;;;;4913626;29;20184;-90
2021/07/09 11:00:41;;;;;;;10.57;7.95;;;32.10;99.90;;;;;;4890747;29;20238;-90
2021/07/09 11:03:10;;;;;;;16.50;7.85;;;32.30;99.90;;;;;;4899635;29;20180;-90
2021/07/09 11:05:50;;;;;;;10.80;7.97;;;32.50;99.90;;;;;;4902577;29;20203;-91
2021/07/09 11:11:06;;;;;;;11.68;7.22;;;32.70;99.90;;;;;;4922286;29;20275;-89
2021/07/09 11:13:46;;;;;;;7.28;6.35;;;32.80;99.90;;;;;;4921325;29;20276;-89
2021/07/09 11:16:24;;;;;;;9.73;6.32;;;32.70;99.90;;;;;;4897272;29;20271;-91
2021/07/09 11:19:03;;;;;;;14.38;7.57;;;32.60;99.90;;;;;;4896926;29;20586;-90
2021/07/09 11:21:29;;;;;;;12.50;7.22;;;32.50;99.90;;;;;;4904862;29;20616;-89
2021/07/09 11:23:55;;;;;;;9.43;6.75;;;32.50;99.90;;;;;;4904729;29;20184;-89
2021/07/09 11:26:21;;;;;;;12.20;7.28;;;32.80;99.90;;;;;;4899440;29;20527;-90
2021/07/09 11:28:48;;;;;;;8.73;7.20;;;33.00;99.90;;;;;;4920858;29;20199;-91
2021/07/09 11:31:32;;;;;;;14.85;7.70;;;33.00;99.90;;;;;;4889039;29;20196;-90
2021/07/09 11:34:07;;;;;;;17.13;7.72;;;33.00;99.90;;;;;;4928428;29;20180;-92
2021/07/09 11:36:54;;;;;;;12.57;7.53;;;33.00;99.90;;;;;;4919742;29;20202;-90
2021/07/09 11:39:23;;;;;;;9.50;6.38;;;32.90;99.90;;;;;;4920876;29;20173;-89
2021/07/09 11:41:53;;;;;;;10.88;5.80;;;33.00;99.90;;;;;;4920873;29;20247;-89
2021/07/09 11:44:21;;;;;;;9.88;5.90;;;33.00;99.90;;;;;;4921656;29;20709;-90
2021/07/09 11:46:52;;;;;;;9.27;5.72;;;32.90;99.90;;;;;;4905031;29;20196;-90
2021/07/09 11:49:28;;;;;;;8.98;5.72;;;32.80;99.90;;;;;;4922106;29;20224;-91
2021/07/09 11:52:06;;;;;;;9.73;6.43;;;32.90;99.90;;;;;;4890499;29;20211;-90
2021/07/09 11:54:35;;;;;;;9.80;6.18;;;32.90;99.90;;;;;;4905004;29;20268;-88
2021/07/09 11:57:11;;;;;;;15.27;6.75;;;33.00;99.90;;;;;;4921549;29;20243;-92
2021/07/09 11:59:38;;;;;;;9.18;6.20;;;35.10;99.90;;;;;;4921888;29;20200;-91
2021/07/09 12:02:23;;;;;;;10.23;6.63;;;32.90;99.90;;;;;;4897445;29;20650;-89
2021/07/09 12:04:56;;;;;;;8.48;7.03;;;32.90;99.90;;;;;;4904424;29;20247;-92
2021/07/09 12:07:33;;;;;;;8.75;6.80;;;32.90;99.90;;;;;;4905319;29;20263;-91
2021/07/09 12:10:20;;;;;;;10.10;7.30;;;32.80;99.90;;;;;;4903654;29;20203;-96
2021/07/09 12:12:51;;;;;;;12.52;7.78;;;32.80;99.90;;;;;;4904641;29;20193;-93
2021/07/09 12:15:24;;;;;;;8.52;6.82;;;32.90;99.90;;;;;;4919992;29;20209;-94
2021/07/09 12:17:57;;;;;;;10.73;7.07;;;32.90;99.90;;;;;;4903379;29;20184;-91
2021/07/09 12:20:26;;;;;;;16.30;9.07;;;33.00;99.90;;;;;;4902170;29;20235;-96
2021/07/09 12:22:56;;;;;;;16.25;7.85;;;33.00;99.90;;;;;;4903371;29;20590;-95
2021/07/09 12:25:27;;;;;;;8.85;7.13;;;30.30;99.90;;;;;;4897184;29;20673;-93
2021/07/09 12:27:55;;;;;;;10.73;6.80;;;33.10;99.90;;;;;;4902644;29;20661;-96
2021/07/09 12:30:24;;;;;;;15.18;7.43;;;32.90;99.90;;;;;;4897324;29;20271;-94
2021/07/09 12:32:50;;;;;;;12.55;7.60;;;;;;;;;;4894495;29;20650;-94
2021/07/09 12:35:21;;;;;;;8.60;7.38;;;32.90;99.90;;;;;;4919151;29;20185;-96
2021/07/09 12:37:58;;;;;;;15.13;8.43;;;32.20;99.90;;;;;;4902735;29;20259;-95
2021/07/09 12:40:42;;;;;;;15.32;8.15;;;32.70;99.90;;;;;;4905048;29;20227;-96
2021/07/09 12:43:27;;;;;;;10.18;8.00;;;31.70;99.90;;;;;;4901636;29;20215;-94
2021/07/09 12:46:06;;;;;;;11.75;7.93;;;32.40;99.90;;;;;;4900551;29;20638;-95